sensor_id;sensor_type;location;lat;lon;timestamp;P1;durP1;ratioP1;P2;durP2;ratioP2
5971;SDS011;3012;49.944;8.454;2023-07-24T00:00:31;1.67;;;1.58;;
5971;SDS011;3012;49.944;8.454;2023-07-24T00:03:03;1.38;;;1.27;;
5971;SDS011;3012;49.944;8.454;2023-07-24T00:05:33;2.58;;;1.58;;
5971;SDS011;3012;49.944;8.454;2023-07-24T00:08:05;2.65;;;1.42;;
5971;SDS011;3012;49.944;8.454;2023-07-24T00:10:38;1.65;;;1.55;;
5971;SDS011;3012;49.944;8.454;2023-07-24T00:13:09;3.17;;;1.70;;
5971;SDS011;3012;49.944;8.454;2023-07-24T00:15:40;3.60;;;1.23;;
5971;SDS011;3012;49.944;8.454;2023-07-24T00:18:11;2.53;;;1.58;;
5971;SDS011;3012;49.944;8.454;2023-07-24T00:20:43;2.10;;;1.60;;
5971;SDS011;3012;49.944;8.454;2023-07-24T00:23:14;1.73;;;1.73;;
5971;SDS011;3012;49.944;8.454;2023-07-24T00:25:48;3.70;;;1.50;;
5971;SDS011;3012;49.944;8.454;2023-07-24T00:28:19;1.48;;;1.42;;
5971;SDS011;3012;49.944;8.454;2023-07-24T00:30:50;2.97;;;1.70;;
5971;SDS011;3012;49.944;8.454;2023-07-24T00:33:21;3.10;;;1.25;;
5971;SDS011;3012;49.944;8.454;2023-07-24T00:35:54;3.90;;;1.65;;
5971;SDS011;3012;49.944;8.454;2023-07-24T00:38:27;1.58;;;1.50;;
5971;SDS011;3012;49.944;8.454;2023-07-24T00:40:59;1.80;;;1.27;;
5971;SDS011;3012;49.944;8.454;2023-07-24T00:43:30;4.28;;;1.67;;
5971;SDS011;3012;49.944;8.454;2023-07-24T00:46:00;1.52;;;1.52;;
5971;SDS011;3012;49.944;8.454;2023-07-24T00:48:32;4.45;;;1.85;;
5971;SDS011;3012;49.944;8.454;2023-07-24T00:51:03;1.52;;;1.50;;
5971;SDS011;3012;49.944;8.454;2023-07-24T00:53:34;1.98;;;1.88;;
5971;SDS011;3012;49.944;8.454;2023-07-24T00:56:07;1.17;;;1.17;;
5971;SDS011;3012;49.944;8.454;2023-07-24T00:58:38;0.90;;;0.90;;
5971;SDS011;3012;49.944;8.454;2023-07-24T01:01:10;1.67;;;1.63;;
5971;SDS011;3012;49.944;8.454;2023-07-24T01:03:41;1.45;;;1.40;;
5971;SDS011;3012;49.944;8.454;2023-07-24T01:06:12;1.88;;;1.60;;
5971;SDS011;3012;49.944;8.454;2023-07-24T01:08:43;1.60;;;1.50;;
5971;SDS011;3012;49.944;8.454;2023-07-24T01:11:18;1.95;;;1.77;;
5971;SDS011;3012;49.944;8.454;2023-07-24T01:13:52;1.60;;;1.60;;
5971;SDS011;3012;49.944;8.454;2023-07-24T01:16:30;2.30;;;2.20;;
5971;SDS011;3012;49.944;8.454;2023-07-24T01:19:11;1.55;;;1.20;;
5971;SDS011;3012;49.944;8.454;2023-07-24T01:21:52;1.90;;;1.83;;
5971;SDS011;3012;49.944;8.454;2023-07-24T01:24:33;1.85;;;1.75;;
5971;SDS011;3012;49.944;8.454;2023-07-24T01:27:20;1.77;;;1.45;;
5971;SDS011;3012;49.944;8.454;2023-07-24T01:29:52;2.38;;;1.80;;
5971;SDS011;3012;49.944;8.454;2023-07-24T01:32:24;1.80;;;1.80;;
5971;SDS011;3012;49.944;8.454;2023-07-24T01:34:54;1.85;;;1.73;;
5971;SDS011;3012;49.944;8.454;2023-07-24T01:37:25;2.10;;;1.90;;
5971;SDS011;3012;49.944;8.454;2023-07-24T01:39:56;2.53;;;2.20;;
5971;SDS011;3012;49.944;8.454;2023-07-24T01:42:29;2.97;;;1.90;;
5971;SDS011;3012;49.944;8.454;2023-07-24T01:45:01;2.50;;;2.30;;
5971;SDS011;3012;49.944;8.454;2023-07-24T01:47:33;2.50;;;2.08;;
5971;SDS011;3012;49.944;8.454;2023-07-24T01:50:04;4.35;;;2.00;;
5971;SDS011;3012;49.944;8.454;2023-07-24T01:52:36;3.17;;;1.88;;
5971;SDS011;3012;49.944;8.454;2023-07-24T01:55:06;2.42;;;1.77;;
5971;SDS011;3012;49.944;8.454;2023-07-24T01:57:40;6.18;;;2.35;;
5971;SDS011;3012;49.944;8.454;2023-07-24T02:00:11;1.77;;;1.73;;
5971;SDS011;3012;49.944;8.454;2023-07-24T02:02:42;2.60;;;1.90;;
5971;SDS011;3012;49.944;8.454;2023-07-24T02:05:13;2.17;;;2.10;;
5971;SDS011;3012;49.944;8.454;2023-07-24T02:07:43;2.13;;;2.03;;
5971;SDS011;3012;49.944;8.454;2023-07-24T02:10:14;4.22;;;2.28;;
5971;SDS011;3012;49.944;8.454;2023-07-24T02:12:47;2.35;;;2.15;;
5971;SDS011;3012;49.944;8.454;2023-07-24T02:15:19;2.10;;;2.00;;
5971;SDS011;3012;49.944;8.454;2023-07-24T02:17:50;2.33;;;2.13;;
5971;SDS011;3012;49.944;8.454;2023-07-24T02:20:21;4.50;;;2.35;;
5971;SDS011;3012;49.944;8.454;2023-07-24T02:22:52;2.33;;;2.22;;
5971;SDS011;3012;49.944;8.454;2023-07-24T02:25:23;2.58;;;2.40;;
5971;SDS011;3012;49.944;8.454;2023-07-24T02:27:55;2.10;;;2.10;;
5971;SDS011;3012;49.944;8.454;2023-07-24T02:30:26;2.35;;;2.22;;
5971;SDS011;3012;49.944;8.454;2023-07-24T02:32:56;5.30;;;2.55;;
5971;SDS011;3012;49.944;8.454;2023-07-24T02:35:27;2.95;;;2.72;;
5971;SDS011;3012;49.944;8.454;2023-07-24T02:37:57;7.65;;;3.10;;
5971;SDS011;3012;49.944;8.454;2023-07-24T02:40:29;2.92;;;2.72;;
5971;SDS011;3012;49.944;8.454;2023-07-24T02:43:03;3.13;;;2.90;;
5971;SDS011;3012;49.944;8.454;2023-07-24T02:45:33;4.20;;;3.88;;
5971;SDS011;3012;49.944;8.454;2023-07-24T02:48:04;3.70;;;3.40;;
5971;SDS011;3012;49.944;8.454;2023-07-24T02:50:36;4.93;;;3.22;;
5971;SDS011;3012;49.944;8.454;2023-07-24T02:53:07;3.35;;;3.08;;
5971;SDS011;3012;49.944;8.454;2023-07-24T02:55:36;3.60;;;3.13;;
5971;SDS011;3012;49.944;8.454;2023-07-24T02:58:13;5.03;;;3.33;;
5971;SDS011;3012;49.944;8.454;2023-07-24T03:00:44;4.22;;;3.35;;
5971;SDS011;3012;49.944;8.454;2023-07-24T03:03:15;5.10;;;3.75;;
5971;SDS011;3012;49.944;8.454;2023-07-24T03:05:47;4.55;;;3.58;;
5971;SDS011;3012;49.944;8.454;2023-07-24T03:08:17;3.42;;;3.22;;
5971;SDS011;3012;49.944;8.454;2023-07-24T03:10:47;7.32;;;4.22;;
5971;SDS011;3012;49.944;8.454;2023-07-24T03:13:20;4.10;;;3.70;;
5971;SDS011;3012;49.944;8.454;2023-07-24T03:15:53;3.38;;;3.10;;
5971;SDS011;3012;49.944;8.454;2023-07-24T03:18:24;4.60;;;4.25;;
5971;SDS011;3012;49.944;8.454;2023-07-24T03:20:57;3.90;;;3.63;;
5971;SDS011;3012;49.944;8.454;2023-07-24T03:23:28;4.00;;;3.60;;
5971;SDS011;3012;49.944;8.454;2023-07-24T03:25:58;4.78;;;3.67;;
5971;SDS011;3012;49.944;8.454;2023-07-24T03:28:32;6.05;;;4.63;;
5971;SDS011;3012;49.944;8.454;2023-07-24T03:31:02;5.03;;;4.63;;
5971;SDS011;3012;49.944;8.454;2023-07-24T03:33:34;4.15;;;3.42;;
5971;SDS011;3012;49.944;8.454;2023-07-24T03:36:05;8.32;;;4.15;;
5971;SDS011;3012;49.944;8.454;2023-07-24T03:38:35;6.60;;;4.10;;
5971;SDS011;3012;49.944;8.454;2023-07-24T03:41:06;4.80;;;3.92;;
5971;SDS011;3012;49.944;8.454;2023-07-24T03:43:38;3.80;;;3.50;;
5971;SDS011;3012;49.944;8.454;2023-07-24T03:46:09;7.15;;;3.40;;
5971;SDS011;3012;49.944;8.454;2023-07-24T03:48:39;5.30;;;4.05;;
5971;SDS011;3012;49.944;8.454;2023-07-24T03:51:10;4.95;;;4.38;;
5971;SDS011;3012;49.944;8.454;2023-07-24T03:53:41;4.75;;;4.22;;
5971;SDS011;3012;49.944;8.454;2023-07-24T03:56:11;12.93;;;4.70;;
5971;SDS011;3012;49.944;8.454;2023-07-24T03:58:44;7.70;;;4.13;;
5971;SDS011;3012;49.944;8.454;2023-07-24T04:01:16;4.50;;;4.07;;
5971;SDS011;3012;49.944;8.454;2023-07-24T04:03:48;3.97;;;3.55;;
5971;SDS011;3012;49.944;8.454;2023-07-24T04:06:19;4.90;;;4.43;;
5971;SDS011;3012;49.944;8.454;2023-07-24T04:08:53;9.10;;;4.50;;
5971;SDS011;3012;49.944;8.454;2023-07-24T04:11:23;5.13;;;4.38;;
5971;SDS011;3012;49.944;8.454;2023-07-24T04:13:55;4.82;;;4.35;;
5971;SDS011;3012;49.944;8.454;2023-07-24T04:16:26;5.40;;;4.72;;
5971;SDS011;3012;49.944;8.454;2023-07-24T04:19:00;4.68;;;4.28;;
5971;SDS011;3012;49.944;8.454;2023-07-24T04:21:34;6.70;;;4.80;;
5971;SDS011;3012;49.944;8.454;2023-07-24T04:24:14;5.97;;;5.13;;
5971;SDS011;3012;49.944;8.454;2023-07-24T04:26:48;5.82;;;4.80;;
5971;SDS011;3012;49.944;8.454;2023-07-24T04:29:25;6.07;;;4.68;;
5971;SDS011;3012;49.944;8.454;2023-07-24T04:31:58;5.28;;;4.57;;
5971;SDS011;3012;49.944;8.454;2023-07-24T04:34:31;6.32;;;5.07;;
5971;SDS011;3012;49.944;8.454;2023-07-24T04:37:05;5.32;;;4.82;;
5971;SDS011;3012;49.944;8.454;2023-07-24T04:39:39;6.88;;;5.00;;
5971;SDS011;3012;49.944;8.454;2023-07-24T04:42:13;5.75;;;5.10;;
5971;SDS011;3012;49.944;8.454;2023-07-24T04:44:49;4.38;;;4.03;;
5971;SDS011;3012;49.944;8.454;2023-07-24T04:47:21;5.85;;;5.35;;
5971;SDS011;3012;49.944;8.454;2023-07-24T04:49:57;8.13;;;5.82;;
5971;SDS011;3012;49.944;8.454;2023-07-24T04:52:28;5.45;;;4.93;;
5971;SDS011;3012;49.944;8.454;2023-07-24T04:55:00;6.28;;;5.68;;
5971;SDS011;3012;49.944;8.454;2023-07-24T04:57:31;6.95;;;4.90;;
5971;SDS011;3012;49.944;8.454;2023-07-24T05:00:06;6.70;;;4.90;;
5971;SDS011;3012;49.944;8.454;2023-07-24T05:02:40;5.93;;;4.78;;
5971;SDS011;3012;49.944;8.454;2023-07-24T05:05:14;5.78;;;5.28;;
5971;SDS011;3012;49.944;8.454;2023-07-24T05:07:47;4.38;;;4.00;;
5971;SDS011;3012;49.944;8.454;2023-07-24T05:10:19;5.25;;;4.70;;
5971;SDS011;3012;49.944;8.454;2023-07-24T05:12:56;5.78;;;5.00;;
5971;SDS011;3012;49.944;8.454;2023-07-24T05:15:31;6.20;;;4.25;;
5971;SDS011;3012;49.944;8.454;2023-07-24T05:18:02;5.10;;;4.60;;
5971;SDS011;3012;49.944;8.454;2023-07-24T05:20:33;4.97;;;4.57;;
5971;SDS011;3012;49.944;8.454;2023-07-24T05:23:05;5.97;;;5.38;;
5971;SDS011;3012;49.944;8.454;2023-07-24T05:25:37;4.88;;;4.45;;
5971;SDS011;3012;49.944;8.454;2023-07-24T05:28:08;6.15;;;4.72;;
5971;SDS011;3012;49.944;8.454;2023-07-24T05:30:41;5.78;;;5.00;;
5971;SDS011;3012;49.944;8.454;2023-07-24T05:33:12;4.57;;;4.18;;
5971;SDS011;3012;49.944;8.454;2023-07-24T05:35:46;6.55;;;4.53;;
5971;SDS011;3012;49.944;8.454;2023-07-24T05:38:18;5.13;;;4.63;;
5971;SDS011;3012;49.944;8.454;2023-07-24T05:40:53;5.63;;;5.05;;
5971;SDS011;3012;49.944;8.454;2023-07-24T05:43:24;7.00;;;5.13;;
5971;SDS011;3012;49.944;8.454;2023-07-24T05:45:56;6.22;;;5.03;;
5971;SDS011;3012;49.944;8.454;2023-07-24T05:48:27;5.68;;;5.10;;
5971;SDS011;3012;49.944;8.454;2023-07-24T05:50:59;8.70;;;6.13;;
5971;SDS011;3012;49.944;8.454;2023-07-24T05:53:36;5.50;;;4.88;;
5971;SDS011;3012;49.944;8.454;2023-07-24T05:56:11;7.45;;;5.10;;
5971;SDS011;3012;49.944;8.454;2023-07-24T05:58:43;6.65;;;5.30;;
5971;SDS011;3012;49.944;8.454;2023-07-24T06:01:17;7.20;;;5.10;;
5971;SDS011;3012;49.944;8.454;2023-07-24T06:03:49;6.13;;;5.53;;
5971;SDS011;3012;49.944;8.454;2023-07-24T06:06:21;6.25;;;4.90;;
5971;SDS011;3012;49.944;8.454;2023-07-24T06:08:58;6.20;;;5.60;;
5971;SDS011;3012;49.944;8.454;2023-07-24T06:11:32;6.97;;;5.38;;
5971;SDS011;3012;49.944;8.454;2023-07-24T06:14:08;7.60;;;5.28;;
5971;SDS011;3012;49.944;8.454;2023-07-24T06:16:42;5.30;;;4.43;;
5971;SDS011;3012;49.944;8.454;2023-07-24T06:19:15;7.32;;;4.80;;
5971;SDS011;3012;49.944;8.454;2023-07-24T06:21:48;4.78;;;4.47;;
5971;SDS011;3012;49.944;8.454;2023-07-24T06:24:19;5.97;;;4.10;;
5971;SDS011;3012;49.944;8.454;2023-07-24T06:26:51;5.72;;;4.10;;
5971;SDS011;3012;49.944;8.454;2023-07-24T06:29:23;4.82;;;4.32;;
5971;SDS011;3012;49.944;8.454;2023-07-24T06:31:59;10.88;;;4.55;;
5971;SDS011;3012;49.944;8.454;2023-07-24T06:34:31;3.85;;;3.55;;
5971;SDS011;3012;49.944;8.454;2023-07-24T06:37:04;6.60;;;4.70;;
5971;SDS011;3012;49.944;8.454;2023-07-24T06:39:49;7.55;;;6.45;;
5971;SDS011;3012;49.944;8.454;2023-07-24T06:42:22;4.75;;;3.88;;
5971;SDS011;3012;49.944;8.454;2023-07-24T06:44:52;3.20;;;2.95;;
5971;SDS011;3012;49.944;8.454;2023-07-24T06:47:24;3.50;;;3.22;;
5971;SDS011;3012;49.944;8.454;2023-07-24T06:49:55;4.65;;;3.78;;
5971;SDS011;3012;49.944;8.454;2023-07-24T06:52:26;5.95;;;3.63;;
5971;SDS011;3012;49.944;8.454;2023-07-24T06:54:57;5.68;;;3.53;;
5971;SDS011;3012;49.944;8.454;2023-07-24T06:57:29;3.33;;;3.13;;
5971;SDS011;3012;49.944;8.454;2023-07-24T06:59:59;4.60;;;4.22;;
5971;SDS011;3012;49.944;8.454;2023-07-24T07:02:32;7.90;;;4.22;;
5971;SDS011;3012;49.944;8.454;2023-07-24T07:05:03;6.63;;;3.88;;
5971;SDS011;3012;49.944;8.454;2023-07-24T07:07:36;4.63;;;3.65;;
5971;SDS011;3012;49.944;8.454;2023-07-24T07:10:12;4.78;;;3.70;;
5971;SDS011;3012;49.944;8.454;2023-07-24T07:12:44;3.83;;;3.47;;
5971;SDS011;3012;49.944;8.454;2023-07-24T07:15:15;3.22;;;3.05;;
5971;SDS011;3012;49.944;8.454;2023-07-24T07:17:49;2.78;;;2.58;;
5971;SDS011;3012;49.944;8.454;2023-07-24T07:20:21;4.05;;;3.20;;
5971;SDS011;3012;49.944;8.454;2023-07-24T07:22:53;4.05;;;3.75;;
5971;SDS011;3012;49.944;8.454;2023-07-24T07:25:25;5.07;;;3.45;;
5971;SDS011;3012;49.944;8.454;2023-07-24T07:27:57;3.65;;;2.70;;
5971;SDS011;3012;49.944;8.454;2023-07-24T07:30:29;5.55;;;2.83;;
5971;SDS011;3012;49.944;8.454;2023-07-24T07:33:02;3.53;;;3.22;;
5971;SDS011;3012;49.944;8.454;2023-07-24T07:35:34;3.30;;;3.05;;
5971;SDS011;3012;49.944;8.454;2023-07-24T07:38:06;3.53;;;3.33;;
5971;SDS011;3012;49.944;8.454;2023-07-24T07:40:38;3.05;;;2.80;;
5971;SDS011;3012;49.944;8.454;2023-07-24T07:43:08;3.42;;;3.13;;
5971;SDS011;3012;49.944;8.454;2023-07-24T07:45:39;6.35;;;2.65;;
5971;SDS011;3012;49.944;8.454;2023-07-24T07:48:10;4.85;;;3.42;;
5971;SDS011;3012;49.944;8.454;2023-07-24T07:50:42;4.63;;;3.42;;
5971;SDS011;3012;49.944;8.454;2023-07-24T07:53:13;3.20;;;2.80;;
5971;SDS011;3012;49.944;8.454;2023-07-24T07:55:44;3.47;;;3.17;;
5971;SDS011;3012;49.944;8.454;2023-07-24T07:58:16;3.45;;;3.25;;
5971;SDS011;3012;49.944;8.454;2023-07-24T08:00:46;5.20;;;2.92;;
5971;SDS011;3012;49.944;8.454;2023-07-24T08:03:19;5.25;;;2.90;;
5971;SDS011;3012;49.944;8.454;2023-07-24T08:05:51;3.45;;;3.15;;
5971;SDS011;3012;49.944;8.454;2023-07-24T08:08:21;2.60;;;2.50;;
5971;SDS011;3012;49.944;8.454;2023-07-24T08:10:54;4.07;;;3.78;;
5971;SDS011;3012;49.944;8.454;2023-07-24T08:13:25;3.00;;;2.80;;
5971;SDS011;3012;49.944;8.454;2023-07-24T08:15:57;5.05;;;3.20;;
5971;SDS011;3012;49.944;8.454;2023-07-24T08:18:38;2.75;;;2.60;;
5971;SDS011;3012;49.944;8.454;2023-07-24T08:21:12;3.90;;;2.83;;
5971;SDS011;3012;49.944;8.454;2023-07-24T08:23:53;4.85;;;3.10;;
5971;SDS011;3012;49.944;8.454;2023-07-24T08:26:34;2.90;;;2.75;;
5971;SDS011;3012;49.944;8.454;2023-07-24T08:29:06;4.82;;;2.58;;
5971;SDS011;3012;49.944;8.454;2023-07-24T08:31:37;3.30;;;3.00;;
5971;SDS011;3012;49.944;8.454;2023-07-24T08:34:13;2.90;;;2.63;;
5971;SDS011;3012;49.944;8.454;2023-07-24T08:36:44;3.72;;;2.45;;
5971;SDS011;3012;49.944;8.454;2023-07-24T08:39:17;3.42;;;2.75;;
5971;SDS011;3012;49.944;8.454;2023-07-24T08:41:48;2.92;;;2.72;;
5971;SDS011;3012;49.944;8.454;2023-07-24T08:44:20;3.10;;;2.90;;
5971;SDS011;3012;49.944;8.454;2023-07-24T08:46:54;2.88;;;2.67;;
5971;SDS011;3012;49.944;8.454;2023-07-24T08:49:30;3.80;;;3.35;;
5971;SDS011;3012;49.944;8.454;2023-07-24T08:52:05;4.38;;;3.42;;
5971;SDS011;3012;49.944;8.454;2023-07-24T08:55:02;3.55;;;3.25;;
5971;SDS011;3012;49.944;8.454;2023-07-24T08:57:36;6.57;;;3.75;;
5971;SDS011;3012;49.944;8.454;2023-07-24T09:00:07;6.60;;;3.35;;
5971;SDS011;3012;49.944;8.454;2023-07-24T09:02:40;5.93;;;3.40;;
5971;SDS011;3012;49.944;8.454;2023-07-24T09:05:15;8.40;;;3.30;;
5971;SDS011;3012;49.944;8.454;2023-07-24T09:07:46;3.60;;;3.30;;
5971;SDS011;3012;49.944;8.454;2023-07-24T09:10:16;7.03;;;3.88;;
5971;SDS011;3012;49.944;8.454;2023-07-24T09:12:52;3.35;;;2.90;;
5971;SDS011;3012;49.944;8.454;2023-07-24T09:15:23;8.10;;;3.15;;
5971;SDS011;3012;49.944;8.454;2023-07-24T09:17:53;3.70;;;3.40;;
5971;SDS011;3012;49.944;8.454;2023-07-24T09:20:26;4.50;;;3.95;;
5971;SDS011;3012;49.944;8.454;2023-07-24T09:23:09;5.35;;;4.47;;
5971;SDS011;3012;49.944;8.454;2023-07-24T09:25:45;7.78;;;4.55;;
5971;SDS011;3012;49.944;8.454;2023-07-24T09:28:15;4.50;;;4.20;;
5971;SDS011;3012;49.944;8.454;2023-07-24T09:30:51;7.32;;;4.25;;
5971;SDS011;3012;49.944;8.454;2023-07-24T09:33:23;6.45;;;4.35;;
5971;SDS011;3012;49.944;8.454;2023-07-24T09:36:08;5.30;;;4.10;;
5971;SDS011;3012;49.944;8.454;2023-07-24T09:38:40;5.00;;;4.03;;
5971;SDS011;3012;49.944;8.454;2023-07-24T09:41:12;4.55;;;3.80;;
5971;SDS011;3012;49.944;8.454;2023-07-24T09:43:45;8.25;;;4.25;;
5971;SDS011;3012;49.944;8.454;2023-07-24T09:46:16;6.45;;;4.63;;
5971;SDS011;3012;49.944;8.454;2023-07-24T09:48:55;10.45;;;4.40;;
5971;SDS011;3012;49.944;8.454;2023-07-24T09:51:31;7.30;;;4.53;;
5971;SDS011;3012;49.944;8.454;2023-07-24T09:54:06;6.38;;;4.30;;
5971;SDS011;3012;49.944;8.454;2023-07-24T09:56:43;7.00;;;4.57;;
5971;SDS011;3012;49.944;8.454;2023-07-24T09:59:23;4.78;;;3.72;;
5971;SDS011;3012;49.944;8.454;2023-07-24T10:01:56;5.43;;;4.20;;
5971;SDS011;3012;49.944;8.454;2023-07-24T10:04:26;4.63;;;4.25;;
5971;SDS011;3012;49.944;8.454;2023-07-24T10:06:58;5.70;;;4.13;;
5971;SDS011;3012;49.944;8.454;2023-07-24T10:09:28;3.10;;;2.90;;
5971;SDS011;3012;49.944;8.454;2023-07-24T10:11:59;4.40;;;2.50;;
5971;SDS011;3012;49.944;8.454;2023-07-24T10:14:30;3.10;;;2.90;;
5971;SDS011;3012;49.944;8.454;2023-07-24T10:17:01;2.80;;;2.60;;
5971;SDS011;3012;49.944;8.454;2023-07-24T10:19:40;4.05;;;2.90;;
5971;SDS011;3012;49.944;8.454;2023-07-24T10:22:18;3.80;;;3.00;;
5971;SDS011;3012;49.944;8.454;2023-07-24T10:24:54;3.38;;;3.10;;
5971;SDS011;3012;49.944;8.454;2023-07-24T10:27:25;3.00;;;2.70;;
5971;SDS011;3012;49.944;8.454;2023-07-24T10:29:59;4.03;;;3.00;;
5971;SDS011;3012;49.944;8.454;2023-07-24T10:32:49;3.58;;;2.85;;
5971;SDS011;3012;49.944;8.454;2023-07-24T10:35:21;3.22;;;2.80;;
5971;SDS011;3012;49.944;8.454;2023-07-24T10:38:01;3.47;;;2.70;;
5971;SDS011;3012;49.944;8.454;2023-07-24T10:40:31;9.32;;;3.40;;
5971;SDS011;3012;49.944;8.454;2023-07-24T10:43:06;5.30;;;3.05;;
5971;SDS011;3012;49.944;8.454;2023-07-24T10:45:46;3.47;;;3.15;;
5971;SDS011;3012;49.944;8.454;2023-07-24T10:48:18;4.97;;;3.28;;
5971;SDS011;3012;49.944;8.454;2023-07-24T10:50:49;6.70;;;3.92;;
5971;SDS011;3012;49.944;8.454;2023-07-24T10:53:22;4.10;;;3.80;;
5971;SDS011;3012;49.944;8.454;2023-07-24T10:55:55;3.65;;;3.33;;
5971;SDS011;3012;49.944;8.454;2023-07-24T10:58:25;4.03;;;3.42;;
5971;SDS011;3012;49.944;8.454;2023-07-24T11:00:56;4.88;;;3.17;;
5971;SDS011;3012;49.944;8.454;2023-07-24T11:03:27;3.13;;;2.92;;
5971;SDS011;3012;49.944;8.454;2023-07-24T11:05:57;4.97;;;3.30;;
5971;SDS011;3012;49.944;8.454;2023-07-24T11:08:30;3.35;;;3.05;;
5971;SDS011;3012;49.944;8.454;2023-07-24T11:11:03;4.18;;;3.20;;
5971;SDS011;3012;49.944;8.454;2023-07-24T11:13:33;3.85;;;3.00;;
5971;SDS011;3012;49.944;8.454;2023-07-24T11:16:04;3.72;;;3.45;;
5971;SDS011;3012;49.944;8.454;2023-07-24T11:18:44;2.55;;;2.45;;
5971;SDS011;3012;49.944;8.454;2023-07-24T11:21:20;3.38;;;3.17;;
5971;SDS011;3012;49.944;8.454;2023-07-24T11:23:54;3.40;;;3.10;;
5971;SDS011;3012;49.944;8.454;2023-07-24T11:26:25;4.57;;;3.53;;
5971;SDS011;3012;49.944;8.454;2023-07-24T11:28:56;3.47;;;3.22;;
5971;SDS011;3012;49.944;8.454;2023-07-24T11:31:27;3.47;;;3.20;;
5971;SDS011;3012;49.944;8.454;2023-07-24T11:34:07;2.85;;;2.65;;
5971;SDS011;3012;49.944;8.454;2023-07-24T11:36:38;3.20;;;3.00;;
5971;SDS011;3012;49.944;8.454;2023-07-24T11:39:15;7.22;;;3.05;;
5971;SDS011;3012;49.944;8.454;2023-07-24T11:41:52;3.72;;;3.42;;
5971;SDS011;3012;49.944;8.454;2023-07-24T11:44:24;3.30;;;3.00;;
5971;SDS011;3012;49.944;8.454;2023-07-24T11:47:02;6.45;;;3.42;;
5971;SDS011;3012;49.944;8.454;2023-07-24T11:49:33;6.18;;;2.83;;
5971;SDS011;3012;49.944;8.454;2023-07-24T11:52:03;3.75;;;3.42;;
5971;SDS011;3012;49.944;8.454;2023-07-24T11:54:39;3.05;;;2.85;;
5971;SDS011;3012;49.944;8.454;2023-07-24T11:57:14;3.10;;;2.78;;
5971;SDS011;3012;49.944;8.454;2023-07-24T11:59:44;3.38;;;2.65;;
5971;SDS011;3012;49.944;8.454;2023-07-24T12:02:16;4.57;;;3.42;;
5971;SDS011;3012;49.944;8.454;2023-07-24T12:04:47;3.83;;;2.38;;
5971;SDS011;3012;49.944;8.454;2023-07-24T12:07:28;5.22;;;3.17;;
5971;SDS011;3012;49.944;8.454;2023-07-24T12:10:04;3.53;;;3.22;;
5971;SDS011;3012;49.944;8.454;2023-07-24T12:12:39;5.43;;;3.15;;
5971;SDS011;3012;49.944;8.454;2023-07-24T12:15:13;4.85;;;2.85;;
5971;SDS011;3012;49.944;8.454;2023-07-24T12:17:45;3.22;;;2.95;;
5971;SDS011;3012;49.944;8.454;2023-07-24T12:20:15;5.85;;;3.13;;
5971;SDS011;3012;49.944;8.454;2023-07-24T12:22:45;3.83;;;2.70;;
5971;SDS011;3012;49.944;8.454;2023-07-24T12:25:17;3.28;;;3.03;;
5971;SDS011;3012;49.944;8.454;2023-07-24T12:27:48;4.13;;;3.08;;
5971;SDS011;3012;49.944;8.454;2023-07-24T12:30:21;5.97;;;2.72;;
5971;SDS011;3012;49.944;8.454;2023-07-24T12:33:00;4.75;;;3.00;;
5971;SDS011;3012;49.944;8.454;2023-07-24T12:35:30;5.45;;;3.30;;
5971;SDS011;3012;49.944;8.454;2023-07-24T12:38:01;5.85;;;2.85;;
5971;SDS011;3012;49.944;8.454;2023-07-24T12:40:33;3.20;;;3.00;;
5971;SDS011;3012;49.944;8.454;2023-07-24T12:43:03;3.60;;;2.63;;
5971;SDS011;3012;49.944;8.454;2023-07-24T12:45:33;2.95;;;2.85;;
5971;SDS011;3012;49.944;8.454;2023-07-24T12:48:04;3.03;;;2.83;;
5971;SDS011;3012;49.944;8.454;2023-07-24T12:50:34;2.97;;;2.78;;
5971;SDS011;3012;49.944;8.454;2023-07-24T12:53:04;6.07;;;3.38;;
5971;SDS011;3012;49.944;8.454;2023-07-24T12:55:39;3.45;;;2.67;;
5971;SDS011;3012;49.944;8.454;2023-07-24T12:58:09;3.25;;;3.05;;
5971;SDS011;3012;49.944;8.454;2023-07-24T13:00:40;5.78;;;2.95;;
5971;SDS011;3012;49.944;8.454;2023-07-24T13:03:10;3.30;;;3.10;;
5971;SDS011;3012;49.944;8.454;2023-07-24T13:05:41;3.35;;;3.08;;
5971;SDS011;3012;49.944;8.454;2023-07-24T13:08:11;6.10;;;3.55;;
5971;SDS011;3012;49.944;8.454;2023-07-24T13:10:46;3.83;;;2.90;;
5971;SDS011;3012;49.944;8.454;2023-07-24T13:13:17;60.83;;;38.97;;
5971;SDS011;3012;49.944;8.454;2023-07-24T13:15:48;15.93;;;11.07;;
5971;SDS011;3012;49.944;8.454;2023-07-24T13:18:18;4.78;;;3.85;;
5971;SDS011;3012;49.944;8.454;2023-07-24T13:20:55;4.72;;;3.28;;
5971;SDS011;3012;49.944;8.454;2023-07-24T13:23:25;3.33;;;3.13;;
5971;SDS011;3012;49.944;8.454;2023-07-24T13:25:58;4.82;;;3.30;;
5971;SDS011;3012;49.944;8.454;2023-07-24T13:28:28;6.60;;;2.78;;
5971;SDS011;3012;49.944;8.454;2023-07-24T13:30:58;2.95;;;2.75;;
5971;SDS011;3012;49.944;8.454;2023-07-24T13:33:40;4.05;;;3.50;;
5971;SDS011;3012;49.944;8.454;2023-07-24T13:36:11;4.97;;;3.13;;
5971;SDS011;3012;49.944;8.454;2023-07-24T13:38:42;13.73;;;5.03;;
5971;SDS011;3012;49.944;8.454;2023-07-24T13:41:17;10.88;;;4.40;;
5971;SDS011;3012;49.944;8.454;2023-07-24T13:43:49;7.47;;;4.43;;
5971;SDS011;3012;49.944;8.454;2023-07-24T13:46:19;8.38;;;5.03;;
5971;SDS011;3012;49.944;8.454;2023-07-24T13:48:50;11.07;;;6.43;;
5971;SDS011;3012;49.944;8.454;2023-07-24T13:51:20;14.10;;;12.55;;
5971;SDS011;3012;49.944;8.454;2023-07-24T13:53:50;26.08;;;24.15;;
5971;SDS011;3012;49.944;8.454;2023-07-24T13:56:24;26.73;;;25.13;;
5971;SDS011;3012;49.944;8.454;2023-07-24T13:58:56;14.82;;;13.80;;
5971;SDS011;3012;49.944;8.454;2023-07-24T14:01:26;15.25;;;14.02;;
5971;SDS011;3012;49.944;8.454;2023-07-24T14:03:58;12.40;;;11.60;;
5971;SDS011;3012;49.944;8.454;2023-07-24T14:06:30;12.48;;;11.68;;
5971;SDS011;3012;49.944;8.454;2023-07-24T14:09:09;15.68;;;14.27;;
5971;SDS011;3012;49.944;8.454;2023-07-24T14:11:42;7.13;;;6.53;;
5971;SDS011;3012;49.944;8.454;2023-07-24T14:14:15;6.32;;;5.38;;
5971;SDS011;3012;49.944;8.454;2023-07-24T14:16:48;7.28;;;5.43;;
5971;SDS011;3012;49.944;8.454;2023-07-24T14:19:19;9.02;;;4.85;;
5971;SDS011;3012;49.944;8.454;2023-07-24T14:21:51;4.90;;;4.30;;
5971;SDS011;3012;49.944;8.454;2023-07-24T14:24:22;7.82;;;4.18;;
5971;SDS011;3012;49.944;8.454;2023-07-24T14:26:55;6.45;;;3.63;;
5971;SDS011;3012;49.944;8.454;2023-07-24T14:29:25;4.47;;;3.42;;
5971;SDS011;3012;49.944;8.454;2023-07-24T14:31:56;3.72;;;2.75;;
5971;SDS011;3012;49.944;8.454;2023-07-24T14:34:26;2.63;;;2.47;;
5971;SDS011;3012;49.944;8.454;2023-07-24T14:36:56;2.78;;;2.58;;
5971;SDS011;3012;49.944;8.454;2023-07-24T14:39:26;3.03;;;2.70;;
5971;SDS011;3012;49.944;8.454;2023-07-24T14:41:58;2.80;;;2.70;;
5971;SDS011;3012;49.944;8.454;2023-07-24T14:44:28;1.88;;;1.75;;
5971;SDS011;3012;49.944;8.454;2023-07-24T14:46:59;2.15;;;1.70;;
5971;SDS011;3012;49.944;8.454;2023-07-24T14:49:30;1.52;;;1.52;;
5971;SDS011;3012;49.944;8.454;2023-07-24T14:52:00;2.15;;;2.00;;
5971;SDS011;3012;49.944;8.454;2023-07-24T14:54:32;1.73;;;1.63;;
5971;SDS011;3012;49.944;8.454;2023-07-24T14:57:07;2.00;;;1.90;;
5971;SDS011;3012;49.944;8.454;2023-07-24T14:59:51;3.05;;;1.48;;
5971;SDS011;3012;49.944;8.454;2023-07-24T15:02:22;1.85;;;1.70;;
5971;SDS011;3012;49.944;8.454;2023-07-24T15:04:53;1.65;;;1.48;;
5971;SDS011;3012;49.944;8.454;2023-07-24T15:07:23;1.80;;;1.70;;
5971;SDS011;3012;49.944;8.454;2023-07-24T15:09:56;1.40;;;1.10;;
5971;SDS011;3012;49.944;8.454;2023-07-24T15:12:28;1.90;;;1.80;;
5971;SDS011;3012;49.944;8.454;2023-07-24T15:14:59;2.83;;;1.25;;
5971;SDS011;3012;49.944;8.454;2023-07-24T15:17:29;2.25;;;1.45;;
5971;SDS011;3012;49.944;8.454;2023-07-24T15:20:00;1.55;;;1.45;;
5971;SDS011;3012;49.944;8.454;2023-07-24T15:22:31;4.68;;;1.77;;
5971;SDS011;3012;49.944;8.454;2023-07-24T15:25:01;3.10;;;1.55;;
5971;SDS011;3012;49.944;8.454;2023-07-24T15:27:34;2.53;;;2.40;;
5971;SDS011;3012;49.944;8.454;2023-07-24T15:30:05;9.25;;;2.58;;
5971;SDS011;3012;49.944;8.454;2023-07-24T15:32:40;4.00;;;1.60;;
5971;SDS011;3012;49.944;8.454;2023-07-24T15:35:15;1.60;;;1.50;;
5971;SDS011;3012;49.944;8.454;2023-07-24T15:37:53;2.88;;;2.67;;
5971;SDS011;3012;49.944;8.454;2023-07-24T15:40:30;1.70;;;1.52;;
5971;SDS011;3012;49.944;8.454;2023-07-24T15:43:11;1.25;;;1.15;;
5971;SDS011;3012;49.944;8.454;2023-07-24T15:45:43;1.15;;;1.08;;
5971;SDS011;3012;49.944;8.454;2023-07-24T15:48:13;1.02;;;1.00;;